Sousse, Tunisia
Current Conditions -  °F | °C
As of 9:00 PM on Sunday 23 Nov 2014 (Local Time) from DTMB Reporting Station
Clear Clear  
Wind Chill: 68°   Ceiling: Unl
Heat Index: 68°   Visibility: 5mi
Dew Point: 64°   Wind: 6mph
Humidity: 88%   Direction: 150°SSE
Pressure: 30.24"   Gusts: NA
Location:  35.82°N, 10.63°E
Report Text: DTMB 232000Z 15005KT 8000 NSC 20/18 Q1024 NOSIG
Loading
Personal Weather Stations






























Interactive Weather Map New forecast layout! Learn more

10-Day Weather Forecast

Advertisements
Track Severe Weather on mobile